Key Field
KMEI : rendu visible

Aérodrome :











RETROUVEZ-NOUS SUR...

 
LOGIN :

S'inscrire | Disclaimer

   EN    FR    IT 

 









Légende :    VFR   VFR Marginal   IFR   IFR Intensif   IFR Très Intensif
Visi : 
Plafond : 
>= 8 km
>= 3000ft
5 à 8 km
1000 à 3000 ft
1500m à 5 km
500 à 1000 ft
800 à 1500m
200 à 500 ft
< 800m
< 200 ft
Symboles :   Orages  Brouillard  Fortes neiges  Fortes précipitations  Vent > 20 kt






- Altitude de l'aérodrome : 297 ft
- Code IATA : MEI


KMEI - Key Field

DERNIER METAR :
  • 250758Z AUTO 00000KT 10SM R01/4000VP6000FT FEW002 01/M01 A3013 RMK AO2 SLP204 T00111006 $

METARs EXPIRÉS :
  • 250740Z AUTO 00000KT 2 1/2SM R01/3000VP6000FT BR FEW002 02/00 A3013 RMK AO2 T00170000
  • 250658Z AUTO 21003KT 10SM R01/1200VP6000FT CLR 02/00 A3013 RMK AO2 SLP203 T00170000
  • 250558Z AUTO 00000KT 10SM CLR 02/01 A3013 RMK AO2 SLP202 T00220006 10094 20022 401610022 58001

TAF KMEI
Valide du 25 à 06h jusqu'au 26 à 06h UTC


250536Z 2506/2606 00000KT P6SM SKC
FM251400 28005KT P6SM SKC



MET'MAP, la Météo Aéronautique d'un coup d'oeil ! - Copyright ORBIFLY Décembre 2007 - Disclaimer

ORBIFLY MET'MAP TEAM :

Programmation & Développement : Alexandra Zaïnal
Sur une idée originale de : Baudouin d'Aumeries
Assistance à la programmation : Marc-Olivier Méhu
Soutien technique & logistique : Manuel Goepfert

Contact : metmap@orbifly.com




SOURCES & CREDITS :

   NOAA       Earth
Advisory